sensor_id;sensor_type;location;lat;lon;timestamp;P1;P2;P0
42360;PMS5003;54542;51.562;0.004;2022-07-09T00:01:39;6;6;
42360;PMS5003;54542;51.562;0.004;2022-07-09T00:04:07;5;5;
42360;PMS5003;54542;51.562;0.004;2022-07-09T00:06:34;5;5;
42360;PMS5003;54542;51.562;0.004;2022-07-09T00:09:02;5;5;
42360;PMS5003;54542;51.562;0.004;2022-07-09T00:11:30;5;5;
42360;PMS5003;54542;51.562;0.004;2022-07-09T00:13:58;5;5;
42360;PMS5003;54542;51.562;0.004;2022-07-09T00:16:25;8;5;
42360;PMS5003;54542;51.562;0.004;2022-07-09T00:18:53;8;7;
42360;PMS5003;54542;51.562;0.004;2022-07-09T00:21:21;4;4;
42360;PMS5003;54542;51.562;0.004;2022-07-09T00:23:48;2;2;
42360;PMS5003;54542;51.562;0.004;2022-07-09T00:26:16;4;4;
42360;PMS5003;54542;51.562;0.004;2022-07-09T00:28:44;4;4;
42360;PMS5003;54542;51.562;0.004;2022-07-09T00:31:11;4;4;
42360;PMS5003;54542;51.562;0.004;2022-07-09T00:33:39;4;4;
42360;PMS5003;54542;51.562;0.004;2022-07-09T00:36:07;4;4;
42360;PMS5003;54542;51.562;0.004;2022-07-09T00:38:34;4;4;
42360;PMS5003;54542;51.562;0.004;2022-07-09T00:41:02;4;4;
42360;PMS5003;54542;51.562;0.004;2022-07-09T00:43:30;3;3;
42360;PMS5003;54542;51.562;0.004;2022-07-09T00:45:58;3;3;
42360;PMS5003;54542;51.562;0.004;2022-07-09T00:48:25;4;4;
42360;PMS5003;54542;51.562;0.004;2022-07-09T00:50:53;5;5;
42360;PMS5003;54542;51.562;0.004;2022-07-09T00:53:23;4;4;
42360;PMS5003;54542;51.562;0.004;2022-07-09T00:55:51;2;2;
42360;PMS5003;54542;51.562;0.004;2022-07-09T00:58:20;4;4;
42360;PMS5003;54542;51.562;0.004;2022-07-09T01:00:48;4;3;
42360;PMS5003;54542;51.562;0.004;2022-07-09T01:03:15;5;5;
42360;PMS5003;54542;51.562;0.004;2022-07-09T01:05:43;6;5;
42360;PMS5003;54542;51.562;0.004;2022-07-09T01:08:11;4;4;
42360;PMS5003;54542;51.562;0.004;2022-07-09T01:10:39;4;4;
42360;PMS5003;54542;51.562;0.004;2022-07-09T01:13:06;3;3;
42360;PMS5003;54542;51.562;0.004;2022-07-09T01:15:34;5;2;
42360;PMS5003;54542;51.562;0.004;2022-07-09T01:18:01;3;3;
42360;PMS5003;54542;51.562;0.004;2022-07-09T01:20:29;5;3;
42360;PMS5003;54542;51.562;0.004;2022-07-09T01:22:57;3;3;
42360;PMS5003;54542;51.562;0.004;2022-07-09T01:25:27;5;5;
42360;PMS5003;54542;51.562;0.004;2022-07-09T01:28:01;3;3;
42360;PMS5003;54542;51.562;0.004;2022-07-09T01:32:08;1;1;
42360;PMS5003;54542;51.562;0.004;2022-07-09T01:34:36;4;4;
42360;PMS5003;54542;51.562;0.004;2022-07-09T01:37:03;4;4;
42360;PMS5003;54542;51.562;0.004;2022-07-09T01:39:31;4;4;
42360;PMS5003;54542;51.562;0.004;2022-07-09T01:41:58;2;2;
42360;PMS5003;54542;51.562;0.004;2022-07-09T01:44:25;2;2;
42360;PMS5003;54542;51.562;0.004;2022-07-09T01:46:53;3;3;
42360;PMS5003;54542;51.562;0.004;2022-07-09T01:49:20;4;4;
42360;PMS5003;54542;51.562;0.004;2022-07-09T01:51:47;3;2;
42360;PMS5003;54542;51.562;0.004;2022-07-09T01:54:14;1;1;
42360;PMS5003;54542;51.562;0.004;2022-07-09T01:56:41;3;3;
42360;PMS5003;54542;51.562;0.004;2022-07-09T01:59:08;2;2;
42360;PMS5003;54542;51.562;0.004;2022-07-09T02:01:35;1;1;
42360;PMS5003;54542;51.562;0.004;2022-07-09T02:04:02;5;5;
42360;PMS5003;54542;51.562;0.004;2022-07-09T02:06:30;3;3;
42360;PMS5003;54542;51.562;0.004;2022-07-09T02:08:57;4;4;
42360;PMS5003;54542;51.562;0.004;2022-07-09T02:11:24;3;3;
42360;PMS5003;54542;51.562;0.004;2022-07-09T02:13:51;4;4;
42360;PMS5003;54542;51.562;0.004;2022-07-09T02:16:18;1;0;
42360;PMS5003;54542;51.562;0.004;2022-07-09T02:18:45;3;3;
42360;PMS5003;54542;51.562;0.004;2022-07-09T02:21:12;4;4;
42360;PMS5003;54542;51.562;0.004;2022-07-09T02:23:39;3;3;
42360;PMS5003;54542;51.562;0.004;2022-07-09T02:26:06;3;3;
42360;PMS5003;54542;51.562;0.004;2022-07-09T02:28:33;3;3;
42360;PMS5003;54542;51.562;0.004;2022-07-09T02:31:00;2;2;
42360;PMS5003;54542;51.562;0.004;2022-07-09T02:33:27;3;3;
42360;PMS5003;54542;51.562;0.004;2022-07-09T02:35:54;3;3;
42360;PMS5003;54542;51.562;0.004;2022-07-09T02:38:21;2;2;
42360;PMS5003;54542;51.562;0.004;2022-07-09T02:40:48;4;4;
42360;PMS5003;54542;51.562;0.004;2022-07-09T02:43:15;3;3;
42360;PMS5003;54542;51.562;0.004;2022-07-09T02:45:42;2;2;
42360;PMS5003;54542;51.562;0.004;2022-07-09T02:48:10;3;3;
42360;PMS5003;54542;51.562;0.004;2022-07-09T02:50:37;5;3;
42360;PMS5003;54542;51.562;0.004;2022-07-09T02:53:04;2;2;
42360;PMS5003;54542;51.562;0.004;2022-07-09T02:55:31;3;3;
42360;PMS5003;54542;51.562;0.004;2022-07-09T02:57:58;3;3;
42360;PMS5003;54542;51.562;0.004;2022-07-09T03:00:25;3;3;
42360;PMS5003;54542;51.562;0.004;2022-07-09T03:02:53;3;3;
42360;PMS5003;54542;51.562;0.004;2022-07-09T03:05:20;4;4;
42360;PMS5003;54542;51.562;0.004;2022-07-09T03:07:47;2;2;
42360;PMS5003;54542;51.562;0.004;2022-07-09T03:10:14;4;2;
42360;PMS5003;54542;51.562;0.004;2022-07-09T03:12:40;4;4;
42360;PMS5003;54542;51.562;0.004;2022-07-09T03:15:08;4;3;
42360;PMS5003;54542;51.562;0.004;2022-07-09T03:17:35;4;2;
42360;PMS5003;54542;51.562;0.004;2022-07-09T03:20:02;2;2;
42360;PMS5003;54542;51.562;0.004;2022-07-09T03:22:30;3;3;
42360;PMS5003;54542;51.562;0.004;2022-07-09T03:24:57;4;3;
42360;PMS5003;54542;51.562;0.004;2022-07-09T03:27:24;2;2;
42360;PMS5003;54542;51.562;0.004;2022-07-09T03:29:51;2;2;
42360;PMS5003;54542;51.562;0.004;2022-07-09T03:32:19;4;2;
42360;PMS5003;54542;51.562;0.004;2022-07-09T03:34:46;3;2;
42360;PMS5003;54542;51.562;0.004;2022-07-09T03:37:13;2;2;
42360;PMS5003;54542;51.562;0.004;2022-07-09T03:39:41;3;3;
42360;PMS5003;54542;51.562;0.004;2022-07-09T03:42:08;3;3;
42360;PMS5003;54542;51.562;0.004;2022-07-09T03:44:35;4;4;
42360;PMS5003;54542;51.562;0.004;2022-07-09T03:47:02;3;3;
42360;PMS5003;54542;51.562;0.004;2022-07-09T03:49:30;4;3;
42360;PMS5003;54542;51.562;0.004;2022-07-09T03:51:57;3;3;
42360;PMS5003;54542;51.562;0.004;2022-07-09T03:54:25;3;3;
42360;PMS5003;54542;51.562;0.004;2022-07-09T03:56:52;3;3;
42360;PMS5003;54542;51.562;0.004;2022-07-09T03:59:19;3;3;
42360;PMS5003;54542;51.562;0.004;2022-07-09T04:01:46;5;4;
42360;PMS5003;54542;51.562;0.004;2022-07-09T04:04:13;5;4;
42360;PMS5003;54542;51.562;0.004;2022-07-09T04:06:40;3;3;
42360;PMS5003;54542;51.562;0.004;2022-07-09T04:09:07;3;3;
42360;PMS5003;54542;51.562;0.004;2022-07-09T04:11:34;3;3;
42360;PMS5003;54542;51.562;0.004;2022-07-09T04:14:02;3;3;
42360;PMS5003;54542;51.562;0.004;2022-07-09T04:16:29;3;3;
42360;PMS5003;54542;51.562;0.004;2022-07-09T04:18:56;4;4;
42360;PMS5003;54542;51.562;0.004;2022-07-09T04:21:23;2;2;
42360;PMS5003;54542;51.562;0.004;2022-07-09T04:23:50;3;3;
42360;PMS5003;54542;51.562;0.004;2022-07-09T04:26:18;4;4;
42360;PMS5003;54542;51.562;0.004;2022-07-09T04:28:45;3;3;
42360;PMS5003;54542;51.562;0.004;2022-07-09T04:31:12;6;4;
42360;PMS5003;54542;51.562;0.004;2022-07-09T04:33:39;5;5;
42360;PMS5003;54542;51.562;0.004;2022-07-09T04:36:07;3;3;
42360;PMS5003;54542;51.562;0.004;2022-07-09T04:38:34;7;5;
42360;PMS5003;54542;51.562;0.004;2022-07-09T04:41:01;3;3;
42360;PMS5003;54542;51.562;0.004;2022-07-09T04:43:29;2;2;
42360;PMS5003;54542;51.562;0.004;2022-07-09T04:45:56;4;4;
42360;PMS5003;54542;51.562;0.004;2022-07-09T04:48:23;6;5;
42360;PMS5003;54542;51.562;0.004;2022-07-09T04:50:51;4;4;
42360;PMS5003;54542;51.562;0.004;2022-07-09T04:53:18;3;3;
42360;PMS5003;54542;51.562;0.004;2022-07-09T04:55:45;4;4;
42360;PMS5003;54542;51.562;0.004;2022-07-09T04:58:12;1;1;
42360;PMS5003;54542;51.562;0.004;2022-07-09T05:00:39;3;3;
42360;PMS5003;54542;51.562;0.004;2022-07-09T05:03:06;6;5;
42360;PMS5003;54542;51.562;0.004;2022-07-09T05:05:33;5;4;
42360;PMS5003;54542;51.562;0.004;2022-07-09T05:08:00;3;3;
42360;PMS5003;54542;51.562;0.004;2022-07-09T05:10:28;9;8;
42360;PMS5003;54542;51.562;0.004;2022-07-09T05:12:56;3;2;
42360;PMS5003;54542;51.562;0.004;2022-07-09T05:15:22;4;4;
42360;PMS5003;54542;51.562;0.004;2022-07-09T05:17:49;6;6;
42360;PMS5003;54542;51.562;0.004;2022-07-09T05:20:16;2;2;
42360;PMS5003;54542;51.562;0.004;2022-07-09T05:22:43;3;3;
42360;PMS5003;54542;51.562;0.004;2022-07-09T05:25:10;4;4;
42360;PMS5003;54542;51.562;0.004;2022-07-09T05:27:41;5;3;
42360;PMS5003;54542;51.562;0.004;2022-07-09T05:30:10;4;4;
42360;PMS5003;54542;51.562;0.004;2022-07-09T05:32:38;4;4;
42360;PMS5003;54542;51.562;0.004;2022-07-09T05:35:05;4;4;
42360;PMS5003;54542;51.562;0.004;2022-07-09T05:37:33;3;2;
42360;PMS5003;54542;51.562;0.004;2022-07-09T05:40:00;4;4;
42360;PMS5003;54542;51.562;0.004;2022-07-09T05:42:27;6;4;
42360;PMS5003;54542;51.562;0.004;2022-07-09T05:44:54;5;5;
42360;PMS5003;54542;51.562;0.004;2022-07-09T05:47:21;6;5;
42360;PMS5003;54542;51.562;0.004;2022-07-09T05:49:48;5;5;
42360;PMS5003;54542;51.562;0.004;2022-07-09T05:52:20;5;3;
42360;PMS5003;54542;51.562;0.004;2022-07-09T05:54:47;5;4;
42360;PMS5003;54542;51.562;0.004;2022-07-09T05:57:15;4;3;
42360;PMS5003;54542;51.562;0.004;2022-07-09T05:59:42;4;4;
42360;PMS5003;54542;51.562;0.004;2022-07-09T06:02:09;3;3;
42360;PMS5003;54542;51.562;0.004;2022-07-09T06:04:36;5;5;
42360;PMS5003;54542;51.562;0.004;2022-07-09T06:07:04;7;5;
42360;PMS5003;54542;51.562;0.004;2022-07-09T06:09:31;4;4;
42360;PMS5003;54542;51.562;0.004;2022-07-09T06:11:59;3;3;
42360;PMS5003;54542;51.562;0.004;2022-07-09T06:14:26;4;4;
42360;PMS5003;54542;51.562;0.004;2022-07-09T06:16:53;4;4;
42360;PMS5003;54542;51.562;0.004;2022-07-09T06:19:20;4;4;
42360;PMS5003;54542;51.562;0.004;2022-07-09T06:21:52;4;4;
42360;PMS5003;54542;51.562;0.004;2022-07-09T06:24:19;4;4;
42360;PMS5003;54542;51.562;0.004;2022-07-09T06:26:46;4;4;
42360;PMS5003;54542;51.562;0.004;2022-07-09T06:29:13;3;3;
42360;PMS5003;54542;51.562;0.004;2022-07-09T06:31:40;5;5;
42360;PMS5003;54542;51.562;0.004;2022-07-09T06:34:07;4;4;
42360;PMS5003;54542;51.562;0.004;2022-07-09T06:36:34;3;3;
42360;PMS5003;54542;51.562;0.004;2022-07-09T06:39:01;4;4;
42360;PMS5003;54542;51.562;0.004;2022-07-09T06:41:29;3;3;
42360;PMS5003;54542;51.562;0.004;2022-07-09T06:44:03;5;4;
42360;PMS5003;54542;51.562;0.004;2022-07-09T06:46:30;3;3;
42360;PMS5003;54542;51.562;0.004;2022-07-09T06:48:58;3;3;
42360;PMS5003;54542;51.562;0.004;2022-07-09T06:51:25;3;3;
42360;PMS5003;54542;51.562;0.004;2022-07-09T06:53:53;4;3;
42360;PMS5003;54542;51.562;0.004;2022-07-09T06:56:20;1;1;
42360;PMS5003;54542;51.562;0.004;2022-07-09T06:58:46;4;2;
42360;PMS5003;54542;51.562;0.004;2022-07-09T07:01:14;3;3;
42360;PMS5003;54542;51.562;0.004;2022-07-09T07:03:42;4;3;
42360;PMS5003;54542;51.562;0.004;2022-07-09T07:06:09;3;3;
42360;PMS5003;54542;51.562;0.004;2022-07-09T07:08:36;2;2;
42360;PMS5003;54542;51.562;0.004;2022-07-09T07:11:03;4;2;
42360;PMS5003;54542;51.562;0.004;2022-07-09T07:13:30;2;2;
42360;PMS5003;54542;51.562;0.004;2022-07-09T07:15:57;1;1;
42360;PMS5003;54542;51.562;0.004;2022-07-09T07:18:24;1;1;
42360;PMS5003;54542;51.562;0.004;2022-07-09T07:20:52;1;1;
42360;PMS5003;54542;51.562;0.004;2022-07-09T07:23:19;2;2;
42360;PMS5003;54542;51.562;0.004;2022-07-09T07:25:46;3;3;
42360;PMS5003;54542;51.562;0.004;2022-07-09T07:28:13;3;3;
42360;PMS5003;54542;51.562;0.004;2022-07-09T07:30:40;2;2;
42360;PMS5003;54542;51.562;0.004;2022-07-09T07:33:08;2;2;
42360;PMS5003;54542;51.562;0.004;2022-07-09T07:35:35;1;0;
42360;PMS5003;54542;51.562;0.004;2022-07-09T07:38:02;2;2;
42360;PMS5003;54542;51.562;0.004;2022-07-09T07:40:29;2;2;
42360;PMS5003;54542;51.562;0.004;2022-07-09T07:42:57;3;3;
42360;PMS5003;54542;51.562;0.004;2022-07-09T07:45:24;2;2;
42360;PMS5003;54542;51.562;0.004;2022-07-09T07:47:52;0;0;
42360;PMS5003;54542;51.562;0.004;2022-07-09T07:50:19;2;2;
42360;PMS5003;54542;51.562;0.004;2022-07-09T07:52:47;3;1;
42360;PMS5003;54542;51.562;0.004;2022-07-09T07:55:15;1;1;
42360;PMS5003;54542;51.562;0.004;2022-07-09T07:57:42;2;2;
42360;PMS5003;54542;51.562;0.004;2022-07-09T08:00:10;2;2;
42360;PMS5003;54542;51.562;0.004;2022-07-09T08:02:38;1;1;
42360;PMS5003;54542;51.562;0.004;2022-07-09T08:05:06;3;3;
42360;PMS5003;54542;51.562;0.004;2022-07-09T08:07:34;3;1;
42360;PMS5003;54542;51.562;0.004;2022-07-09T08:10:01;3;2;
42360;PMS5003;54542;51.562;0.004;2022-07-09T08:12:28;2;2;
42360;PMS5003;54542;51.562;0.004;2022-07-09T08:14:56;2;2;
42360;PMS5003;54542;51.562;0.004;2022-07-09T08:17:24;3;2;
42360;PMS5003;54542;51.562;0.004;2022-07-09T08:19:57;4;4;
42360;PMS5003;54542;51.562;0.004;2022-07-09T08:22:25;4;4;
42360;PMS5003;54542;51.562;0.004;2022-07-09T08:24:53;1;1;
42360;PMS5003;54542;51.562;0.004;2022-07-09T08:27:20;1;1;
42360;PMS5003;54542;51.562;0.004;2022-07-09T08:29:47;3;3;
42360;PMS5003;54542;51.562;0.004;2022-07-09T08:32:15;1;1;
42360;PMS5003;54542;51.562;0.004;2022-07-09T08:34:43;1;1;
42360;PMS5003;54542;51.562;0.004;2022-07-09T08:37:10;3;3;
42360;PMS5003;54542;51.562;0.004;2022-07-09T08:39:38;2;2;
42360;PMS5003;54542;51.562;0.004;2022-07-09T08:42:07;2;2;
42360;PMS5003;54542;51.562;0.004;2022-07-09T08:44:36;1;1;
42360;PMS5003;54542;51.562;0.004;2022-07-09T08:47:05;2;2;
42360;PMS5003;54542;51.562;0.004;2022-07-09T08:49:33;2;1;
42360;PMS5003;54542;51.562;0.004;2022-07-09T08:52:02;1;1;
42360;PMS5003;54542;51.562;0.004;2022-07-09T08:54:30;3;2;
42360;PMS5003;54542;51.562;0.004;2022-07-09T08:56:58;2;2;
42360;PMS5003;54542;51.562;0.004;2022-07-09T08:59:25;1;1;
42360;PMS5003;54542;51.562;0.004;2022-07-09T09:01:52;0;0;
42360;PMS5003;54542;51.562;0.004;2022-07-09T09:04:19;2;2;
42360;PMS5003;54542;51.562;0.004;2022-07-09T09:06:47;2;2;
42360;PMS5003;54542;51.562;0.004;2022-07-09T09:09:17;2;2;
42360;PMS5003;54542;51.562;0.004;2022-07-09T09:11:47;1;1;
42360;PMS5003;54542;51.562;0.004;2022-07-09T09:14:18;3;3;
42360;PMS5003;54542;51.562;0.004;2022-07-09T09:16:47;4;4;
42360;PMS5003;54542;51.562;0.004;2022-07-09T09:19:15;3;3;
42360;PMS5003;54542;51.562;0.004;2022-07-09T09:21:42;2;2;
42360;PMS5003;54542;51.562;0.004;2022-07-09T09:24:10;1;1;
42360;PMS5003;54542;51.562;0.004;2022-07-09T09:26:37;1;1;
42360;PMS5003;54542;51.562;0.004;2022-07-09T09:29:04;2;2;
42360;PMS5003;54542;51.562;0.004;2022-07-09T09:31:32;2;2;
42360;PMS5003;54542;51.562;0.004;2022-07-09T09:34:10;0;0;
42360;PMS5003;54542;51.562;0.004;2022-07-09T09:36:38;3;3;
42360;PMS5003;54542;51.562;0.004;2022-07-09T09:39:08;3;3;
42360;PMS5003;54542;51.562;0.004;2022-07-09T09:41:38;0;0;
42360;PMS5003;54542;51.562;0.004;2022-07-09T09:44:07;2;1;
42360;PMS5003;54542;51.562;0.004;2022-07-09T09:46:36;1;1;
42360;PMS5003;54542;51.562;0.004;2022-07-09T09:49:04;2;2;
42360;PMS5003;54542;51.562;0.004;2022-07-09T09:51:33;2;2;
42360;PMS5003;54542;51.562;0.004;2022-07-09T09:54:02;0;0;
42360;PMS5003;54542;51.562;0.004;2022-07-09T09:56:30;1;1;
42360;PMS5003;54542;51.562;0.004;2022-07-09T09:58:58;2;2;
42360;PMS5003;54542;51.562;0.004;2022-07-09T10:01:27;2;2;
42360;PMS5003;54542;51.562;0.004;2022-07-09T10:03:55;3;3;
42360;PMS5003;54542;51.562;0.004;2022-07-09T10:06:23;1;1;
42360;PMS5003;54542;51.562;0.004;2022-07-09T10:08:52;2;2;
42360;PMS5003;54542;51.562;0.004;2022-07-09T10:11:21;3;3;
42360;PMS5003;54542;51.562;0.004;2022-07-09T10:13:50;2;2;
42360;PMS5003;54542;51.562;0.004;2022-07-09T10:16:18;3;3;
42360;PMS5003;54542;51.562;0.004;2022-07-09T10:18:52;0;0;
42360;PMS5003;54542;51.562;0.004;2022-07-09T10:21:31;2;1;
42360;PMS5003;54542;51.562;0.004;2022-07-09T10:23:59;3;3;
42360;PMS5003;54542;51.562;0.004;2022-07-09T10:26:34;5;2;
42360;PMS5003;54542;51.562;0.004;2022-07-09T10:29:02;3;3;
42360;PMS5003;54542;51.562;0.004;2022-07-09T10:31:30;3;3;
42360;PMS5003;54542;51.562;0.004;2022-07-09T10:34:00;3;3;
42360;PMS5003;54542;51.562;0.004;2022-07-09T10:36:33;1;1;
42360;PMS5003;54542;51.562;0.004;2022-07-09T10:39:11;1;1;
42360;PMS5003;54542;51.562;0.004;2022-07-09T10:41:39;2;2;
42360;PMS5003;54542;51.562;0.004;2022-07-09T10:44:06;2;2;
42360;PMS5003;54542;51.562;0.004;2022-07-09T10:46:33;3;2;
42360;PMS5003;54542;51.562;0.004;2022-07-09T10:49:01;1;1;
42360;PMS5003;54542;51.562;0.004;2022-07-09T10:51:28;2;2;
42360;PMS5003;54542;51.562;0.004;2022-07-09T10:53:58;2;2;
42360;PMS5003;54542;51.562;0.004;2022-07-09T10:56:25;3;3;
42360;PMS5003;54542;51.562;0.004;2022-07-09T10:58:52;2;2;
42360;PMS5003;54542;51.562;0.004;2022-07-09T11:01:20;2;2;
42360;PMS5003;54542;51.562;0.004;2022-07-09T11:03:50;5;4;
42360;PMS5003;54542;51.562;0.004;2022-07-09T11:06:18;2;2;
42360;PMS5003;54542;51.562;0.004;2022-07-09T11:08:45;5;2;
42360;PMS5003;54542;51.562;0.004;2022-07-09T11:11:15;4;4;
42360;PMS5003;54542;51.562;0.004;2022-07-09T11:13:49;3;3;
42360;PMS5003;54542;51.562;0.004;2022-07-09T11:16:21;3;3;
42360;PMS5003;54542;51.562;0.004;2022-07-09T11:18:48;2;2;
42360;PMS5003;54542;51.562;0.004;2022-07-09T11:21:21;3;3;
42360;PMS5003;54542;51.562;0.004;2022-07-09T11:23:48;4;4;
42360;PMS5003;54542;51.562;0.004;2022-07-09T11:26:15;3;3;
42360;PMS5003;54542;51.562;0.004;2022-07-09T11:28:42;4;4;
42360;PMS5003;54542;51.562;0.004;2022-07-09T11:31:11;1;1;
42360;PMS5003;54542;51.562;0.004;2022-07-09T11:33:39;4;4;
42360;PMS5003;54542;51.562;0.004;2022-07-09T11:36:06;1;1;
42360;PMS5003;54542;51.562;0.004;2022-07-09T11:38:34;3;2;
42360;PMS5003;54542;51.562;0.004;2022-07-09T11:41:12;3;3;
42360;PMS5003;54542;51.562;0.004;2022-07-09T11:43:44;1;1;
42360;PMS5003;54542;51.562;0.004;2022-07-09T11:46:15;4;3;
42360;PMS5003;54542;51.562;0.004;2022-07-09T11:48:48;2;2;
42360;PMS5003;54542;51.562;0.004;2022-07-09T11:51:25;2;2;
42360;PMS5003;54542;51.562;0.004;2022-07-09T11:53:53;3;2;
42360;PMS5003;54542;51.562;0.004;2022-07-09T11:56:20;3;3;
42360;PMS5003;54542;51.562;0.004;2022-07-09T11:58:49;2;2;
42360;PMS5003;54542;51.562;0.004;2022-07-09T12:01:16;2;2;
42360;PMS5003;54542;51.562;0.004;2022-07-09T12:03:46;2;2;
42360;PMS5003;54542;51.562;0.004;2022-07-09T12:06:15;2;2;
42360;PMS5003;54542;51.562;0.004;2022-07-09T12:08:43;1;1;
42360;PMS5003;54542;51.562;0.004;2022-07-09T12:11:10;2;2;
42360;PMS5003;54542;51.562;0.004;2022-07-09T12:13:38;3;2;
42360;PMS5003;54542;51.562;0.004;2022-07-09T12:16:05;3;3;
42360;PMS5003;54542;51.562;0.004;2022-07-09T12:18:33;2;2;
42360;PMS5003;54542;51.562;0.004;2022-07-09T12:21:01;2;2;
42360;PMS5003;54542;51.562;0.004;2022-07-09T12:23:28;2;2;
42360;PMS5003;54542;51.562;0.004;2022-07-09T12:25:55;3;3;
42360;PMS5003;54542;51.562;0.004;2022-07-09T12:28:23;2;2;
42360;PMS5003;54542;51.562;0.004;2022-07-09T12:30:50;1;1;
42360;PMS5003;54542;51.562;0.004;2022-07-09T12:33:18;1;1;
42360;PMS5003;54542;51.562;0.004;2022-07-09T12:35:45;1;1;
42360;PMS5003;54542;51.562;0.004;2022-07-09T12:38:12;1;1;
42360;PMS5003;54542;51.562;0.004;2022-07-09T12:40:40;2;2;
42360;PMS5003;54542;51.562;0.004;2022-07-09T12:43:07;1;1;
42360;PMS5003;54542;51.562;0.004;2022-07-09T12:45:34;3;3;
42360;PMS5003;54542;51.562;0.004;2022-07-09T12:48:01;1;1;
42360;PMS5003;54542;51.562;0.004;2022-07-09T12:50:29;0;0;
42360;PMS5003;54542;51.562;0.004;2022-07-09T12:52:56;1;1;
42360;PMS5003;54542;51.562;0.004;2022-07-09T12:55:23;1;1;
42360;PMS5003;54542;51.562;0.004;2022-07-09T12:57:51;1;1;
42360;PMS5003;54542;51.562;0.004;2022-07-09T13:00:19;0;0;
42360;PMS5003;54542;51.562;0.004;2022-07-09T13:02:46;1;1;
42360;PMS5003;54542;51.562;0.004;2022-07-09T13:05:13;1;1;
42360;PMS5003;54542;51.562;0.004;2022-07-09T13:07:40;0;0;
42360;PMS5003;54542;51.562;0.004;2022-07-09T13:10:08;0;0;
42360;PMS5003;54542;51.562;0.004;2022-07-09T13:12:35;1;1;
42360;PMS5003;54542;51.562;0.004;2022-07-09T13:15:03;1;1;
42360;PMS5003;54542;51.562;0.004;2022-07-09T13:17:30;0;0;
42360;PMS5003;54542;51.562;0.004;2022-07-09T13:19:58;0;0;
42360;PMS5003;54542;51.562;0.004;2022-07-09T13:22:25;1;1;
42360;PMS5003;54542;51.562;0.004;2022-07-09T13:24:52;2;0;
42360;PMS5003;54542;51.562;0.004;2022-07-09T13:27:19;1;1;
42360;PMS5003;54542;51.562;0.004;2022-07-09T13:29:47;2;2;
42360;PMS5003;54542;51.562;0.004;2022-07-09T13:32:14;1;1;
42360;PMS5003;54542;51.562;0.004;2022-07-09T13:34:41;0;0;
42360;PMS5003;54542;51.562;0.004;2022-07-09T13:37:08;1;1;
42360;PMS5003;54542;51.562;0.004;2022-07-09T13:39:36;1;0;
42360;PMS5003;54542;51.562;0.004;2022-07-09T13:42:03;1;1;
42360;PMS5003;54542;51.562;0.004;2022-07-09T13:44:30;0;0;
42360;PMS5003;54542;51.562;0.004;2022-07-09T13:46:57;1;1;
42360;PMS5003;54542;51.562;0.004;2022-07-09T13:49:25;0;0;
42360;PMS5003;54542;51.562;0.004;2022-07-09T13:51:52;3;1;
42360;PMS5003;54542;51.562;0.004;2022-07-09T13:54:19;1;1;
42360;PMS5003;54542;51.562;0.004;2022-07-09T13:56:46;0;0;
42360;PMS5003;54542;51.562;0.004;2022-07-09T13:59:13;2;1;
42360;PMS5003;54542;51.562;0.004;2022-07-09T14:01:41;1;1;
42360;PMS5003;54542;51.562;0.004;2022-07-09T14:04:08;0;0;
42360;PMS5003;54542;51.562;0.004;2022-07-09T14:06:36;2;2;
42360;PMS5003;54542;51.562;0.004;2022-07-09T14:09:03;1;1;
42360;PMS5003;54542;51.562;0.004;2022-07-09T14:11:31;1;1;
42360;PMS5003;54542;51.562;0.004;2022-07-09T14:13:58;1;1;
42360;PMS5003;54542;51.562;0.004;2022-07-09T14:16:25;1;1;
42360;PMS5003;54542;51.562;0.004;2022-07-09T14:18:52;0;0;
42360;PMS5003;54542;51.562;0.004;2022-07-09T14:21:19;1;1;
42360;PMS5003;54542;51.562;0.004;2022-07-09T14:23:47;1;0;
42360;PMS5003;54542;51.562;0.004;2022-07-09T14:26:14;0;0;
42360;PMS5003;54542;51.562;0.004;2022-07-09T14:28:41;0;0;
42360;PMS5003;54542;51.562;0.004;2022-07-09T14:31:08;0;0;
42360;PMS5003;54542;51.562;0.004;2022-07-09T14:33:36;0;0;
42360;PMS5003;54542;51.562;0.004;2022-07-09T14:36:03;0;0;
42360;PMS5003;54542;51.562;0.004;2022-07-09T14:38:30;1;1;
42360;PMS5003;54542;51.562;0.004;2022-07-09T14:40:57;1;1;
42360;PMS5003;54542;51.562;0.004;2022-07-09T14:43:25;0;0;
42360;PMS5003;54542;51.562;0.004;2022-07-09T14:45:52;0;0;
42360;PMS5003;54542;51.562;0.004;2022-07-09T14:48:19;0;0;
42360;PMS5003;54542;51.562;0.004;2022-07-09T14:50:46;1;1;
42360;PMS5003;54542;51.562;0.004;2022-07-09T14:53:14;1;1;
42360;PMS5003;54542;51.562;0.004;2022-07-09T14:55:41;1;1;
42360;PMS5003;54542;51.562;0.004;2022-07-09T14:58:08;2;1;
42360;PMS5003;54542;51.562;0.004;2022-07-09T15:00:35;3;1;
42360;PMS5003;54542;51.562;0.004;2022-07-09T15:03:03;1;1;
42360;PMS5003;54542;51.562;0.004;2022-07-09T15:03:03;1;1;
42360;PMS5003;54542;51.562;0.004;2022-07-09T15:05:31;1;1;
42360;PMS5003;54542;51.562;0.004;2022-07-09T15:07:58;0;0;
42360;PMS5003;54542;51.562;0.004;2022-07-09T15:10:25;0;0;
42360;PMS5003;54542;51.562;0.004;2022-07-09T15:12:52;0;0;
42360;PMS5003;54542;51.562;0.004;2022-07-09T15:15:21;1;0;
42360;PMS5003;54542;51.562;0.004;2022-07-09T15:17:48;0;0;
42360;PMS5003;54542;51.562;0.004;2022-07-09T15:20:15;0;0;
42360;PMS5003;54542;51.562;0.004;2022-07-09T15:22:42;0;0;
42360;PMS5003;54542;51.562;0.004;2022-07-09T15:25:10;0;0;
42360;PMS5003;54542;51.562;0.004;2022-07-09T15:27:37;0;0;
42360;PMS5003;54542;51.562;0.004;2022-07-09T15:30:05;1;1;
42360;PMS5003;54542;51.562;0.004;2022-07-09T15:32:33;1;1;
42360;PMS5003;54542;51.562;0.004;2022-07-09T15:35:01;0;0;
42360;PMS5003;54542;51.562;0.004;2022-07-09T15:37:28;0;0;
42360;PMS5003;54542;51.562;0.004;2022-07-09T15:39:55;1;1;
42360;PMS5003;54542;51.562;0.004;2022-07-09T15:42:22;0;0;
42360;PMS5003;54542;51.562;0.004;2022-07-09T15:44:50;0;0;
42360;PMS5003;54542;51.562;0.004;2022-07-09T15:47:17;2;2;
42360;PMS5003;54542;51.562;0.004;2022-07-09T15:49:44;0;0;
42360;PMS5003;54542;51.562;0.004;2022-07-09T15:52:12;1;1;
42360;PMS5003;54542;51.562;0.004;2022-07-09T15:54:39;1;1;
42360;PMS5003;54542;51.562;0.004;2022-07-09T15:57:06;2;1;
42360;PMS5003;54542;51.562;0.004;2022-07-09T15:59:34;1;1;
42360;PMS5003;54542;51.562;0.004;2022-07-09T16:02:01;1;1;
42360;PMS5003;54542;51.562;0.004;2022-07-09T16:04:28;0;0;
42360;PMS5003;54542;51.562;0.004;2022-07-09T16:06:56;0;0;
42360;PMS5003;54542;51.562;0.004;2022-07-09T16:09:23;1;1;
42360;PMS5003;54542;51.562;0.004;2022-07-09T16:11:51;2;2;
42360;PMS5003;54542;51.562;0.004;2022-07-09T16:14:18;1;1;
42360;PMS5003;54542;51.562;0.004;2022-07-09T16:16:45;1;1;
42360;PMS5003;54542;51.562;0.004;2022-07-09T16:19:13;0;0;
42360;PMS5003;54542;51.562;0.004;2022-07-09T16:21:40;0;0;
42360;PMS5003;54542;51.562;0.004;2022-07-09T16:24:08;1;1;
42360;PMS5003;54542;51.562;0.004;2022-07-09T16:26:36;0;0;
42360;PMS5003;54542;51.562;0.004;2022-07-09T16:29:03;0;0;
42360;PMS5003;54542;51.562;0.004;2022-07-09T16:31:30;0;0;
42360;PMS5003;54542;51.562;0.004;2022-07-09T16:33:58;0;0;
42360;PMS5003;54542;51.562;0.004;2022-07-09T16:36:25;0;0;
42360;PMS5003;54542;51.562;0.004;2022-07-09T16:38:53;1;1;
42360;PMS5003;54542;51.562;0.004;2022-07-09T16:41:21;1;1;
42360;PMS5003;54542;51.562;0.004;2022-07-09T16:43:48;0;0;
42360;PMS5003;54542;51.562;0.004;2022-07-09T16:46:16;2;2;
42360;PMS5003;54542;51.562;0.004;2022-07-09T16:48:44;0;0;
42360;PMS5003;54542;51.562;0.004;2022-07-09T16:51:12;1;1;
42360;PMS5003;54542;51.562;0.004;2022-07-09T16:53:41;2;2;